sensor_id;sensor_type;location;lat;lon;timestamp;P1;durP1;ratioP1;P2;durP2;ratioP2
27375;SDS011;14844;51.302;6.354;2023-11-22T00:01:59;19.42;;;14.50;;
27375;SDS011;14844;51.302;6.354;2023-11-22T00:04:24;19.33;;;14.38;;
27375;SDS011;14844;51.302;6.354;2023-11-22T00:06:50;22.30;;;15.38;;
27375;SDS011;14844;51.302;6.354;2023-11-22T00:09:15;18.90;;;13.85;;
27375;SDS011;14844;51.302;6.354;2023-11-22T00:11:41;20.95;;;14.02;;
27375;SDS011;14844;51.302;6.354;2023-11-22T00:14:06;16.65;;;13.43;;
27375;SDS011;14844;51.302;6.354;2023-11-22T00:16:32;18.13;;;13.68;;
27375;SDS011;14844;51.302;6.354;2023-11-22T00:18:59;18.42;;;13.95;;
27375;SDS011;14844;51.302;6.354;2023-11-22T00:21:25;21.35;;;15.07;;
27375;SDS011;14844;51.302;6.354;2023-11-22T00:23:50;20.25;;;15.30;;
27375;SDS011;14844;51.302;6.354;2023-11-22T00:26:16;21.13;;;15.52;;
27375;SDS011;14844;51.302;6.354;2023-11-22T00:28:42;20.95;;;15.90;;
27375;SDS011;14844;51.302;6.354;2023-11-22T00:31:07;20.63;;;15.90;;
27375;SDS011;14844;51.302;6.354;2023-11-22T00:33:33;22.17;;;16.70;;
27375;SDS011;14844;51.302;6.354;2023-11-22T00:35:59;21.95;;;16.58;;
27375;SDS011;14844;51.302;6.354;2023-11-22T00:38:25;22.98;;;16.85;;
27375;SDS011;14844;51.302;6.354;2023-11-22T00:40:51;21.63;;;16.90;;
27375;SDS011;14844;51.302;6.354;2023-11-22T00:43:17;25.98;;;18.55;;
27375;SDS011;14844;51.302;6.354;2023-11-22T00:45:44;24.30;;;18.30;;
27375;SDS011;14844;51.302;6.354;2023-11-22T00:48:10;25.55;;;18.55;;
27375;SDS011;14844;51.302;6.354;2023-11-22T00:50:35;27.05;;;19.95;;
27375;SDS011;14844;51.302;6.354;2023-11-22T00:53:01;29.17;;;21.10;;
27375;SDS011;14844;51.302;6.354;2023-11-22T00:55:26;29.42;;;21.10;;
27375;SDS011;14844;51.302;6.354;2023-11-22T00:57:52;29.67;;;20.95;;
27375;SDS011;14844;51.302;6.354;2023-11-22T01:00:17;29.38;;;21.27;;
27375;SDS011;14844;51.302;6.354;2023-11-22T01:02:43;32.70;;;21.33;;
27375;SDS011;14844;51.302;6.354;2023-11-22T01:05:09;30.13;;;22.23;;
27375;SDS011;14844;51.302;6.354;2023-11-22T01:07:39;31.67;;;22.33;;
27375;SDS011;14844;51.302;6.354;2023-11-22T01:10:04;33.40;;;22.83;;
27375;SDS011;14844;51.302;6.354;2023-11-22T01:12:31;33.65;;;21.70;;
27375;SDS011;14844;51.302;6.354;2023-11-22T01:14:56;30.77;;;23.13;;
27375;SDS011;14844;51.302;6.354;2023-11-22T01:17:22;35.75;;;23.70;;
27375;SDS011;14844;51.302;6.354;2023-11-22T01:19:48;33.45;;;23.73;;
27375;SDS011;14844;51.302;6.354;2023-11-22T01:22:15;34.53;;;23.48;;
27375;SDS011;14844;51.302;6.354;2023-11-22T01:24:42;35.35;;;23.45;;
27375;SDS011;14844;51.302;6.354;2023-11-22T01:27:08;33.72;;;23.80;;
27375;SDS011;14844;51.302;6.354;2023-11-22T01:29:33;33.58;;;22.98;;
27375;SDS011;14844;51.302;6.354;2023-11-22T01:31:59;32.08;;;22.83;;
27375;SDS011;14844;51.302;6.354;2023-11-22T01:34:25;35.78;;;24.38;;
27375;SDS011;14844;51.302;6.354;2023-11-22T01:36:51;32.05;;;23.88;;
27375;SDS011;14844;51.302;6.354;2023-11-22T01:39:16;38.20;;;25.70;;
27375;SDS011;14844;51.302;6.354;2023-11-22T01:41:45;38.55;;;25.63;;
27375;SDS011;14844;51.302;6.354;2023-11-22T01:44:14;37.45;;;26.30;;
27375;SDS011;14844;51.302;6.354;2023-11-22T01:46:40;43.30;;;27.73;;
27375;SDS011;14844;51.302;6.354;2023-11-22T01:49:08;43.03;;;28.23;;
27375;SDS011;14844;51.302;6.354;2023-11-22T01:51:35;43.80;;;27.42;;
27375;SDS011;14844;51.302;6.354;2023-11-22T01:54:02;42.92;;;28.60;;
27375;SDS011;14844;51.302;6.354;2023-11-22T01:56:28;45.42;;;29.30;;
27375;SDS011;14844;51.302;6.354;2023-11-22T01:58:57;45.05;;;28.27;;
27375;SDS011;14844;51.302;6.354;2023-11-22T02:01:25;50.58;;;28.65;;
27375;SDS011;14844;51.302;6.354;2023-11-22T02:03:51;57.00;;;31.42;;
27375;SDS011;14844;51.302;6.354;2023-11-22T02:06:18;53.92;;;32.05;;
27375;SDS011;14844;51.302;6.354;2023-11-22T02:08:46;56.15;;;32.90;;
27375;SDS011;14844;51.302;6.354;2023-11-22T02:11:12;60.60;;;34.22;;
27375;SDS011;14844;51.302;6.354;2023-11-22T02:13:38;58.92;;;33.47;;
27375;SDS011;14844;51.302;6.354;2023-11-22T02:16:03;59.45;;;32.83;;
27375;SDS011;14844;51.302;6.354;2023-11-22T02:18:29;64.57;;;34.55;;
27375;SDS011;14844;51.302;6.354;2023-11-22T02:20:55;52.95;;;32.88;;
27375;SDS011;14844;51.302;6.354;2023-11-22T02:23:22;60.15;;;33.55;;
27375;SDS011;14844;51.302;6.354;2023-11-22T02:25:48;51.28;;;32.20;;
27375;SDS011;14844;51.302;6.354;2023-11-22T02:28:14;60.53;;;33.63;;
27375;SDS011;14844;51.302;6.354;2023-11-22T02:30:39;66.88;;;36.80;;
27375;SDS011;14844;51.302;6.354;2023-11-22T02:33:05;54.78;;;33.03;;
27375;SDS011;14844;51.302;6.354;2023-11-22T02:35:31;67.20;;;35.78;;
27375;SDS011;14844;51.302;6.354;2023-11-22T02:37:57;62.80;;;35.85;;
27375;SDS011;14844;51.302;6.354;2023-11-22T02:40:23;69.78;;;36.50;;
27375;SDS011;14844;51.302;6.354;2023-11-22T02:42:50;68.57;;;37.78;;
27375;SDS011;14844;51.302;6.354;2023-11-22T02:45:18;63.78;;;36.25;;
27375;SDS011;14844;51.302;6.354;2023-11-22T02:47:45;62.25;;;36.40;;
27375;SDS011;14844;51.302;6.354;2023-11-22T02:50:11;63.65;;;36.83;;
27375;SDS011;14844;51.302;6.354;2023-11-22T02:52:38;61.45;;;35.80;;
27375;SDS011;14844;51.302;6.354;2023-11-22T02:55:04;62.47;;;36.03;;
27375;SDS011;14844;51.302;6.354;2023-11-22T02:57:30;55.42;;;34.75;;
27375;SDS011;14844;51.302;6.354;2023-11-22T02:59:56;61.25;;;35.33;;
27375;SDS011;14844;51.302;6.354;2023-11-22T03:02:22;52.55;;;34.42;;
27375;SDS011;14844;51.302;6.354;2023-11-22T03:04:49;60.65;;;35.00;;
27375;SDS011;14844;51.302;6.354;2023-11-22T03:07:17;61.65;;;35.83;;
27375;SDS011;14844;51.302;6.354;2023-11-22T03:09:42;62.60;;;34.80;;
27375;SDS011;14844;51.302;6.354;2023-11-22T03:12:10;51.90;;;33.45;;
27375;SDS011;14844;51.302;6.354;2023-11-22T03:14:37;68.82;;;36.20;;
27375;SDS011;14844;51.302;6.354;2023-11-22T03:17:04;55.17;;;34.45;;
27375;SDS011;14844;51.302;6.354;2023-11-22T03:19:30;60.83;;;35.35;;
27375;SDS011;14844;51.302;6.354;2023-11-22T03:21:55;57.75;;;34.33;;
27375;SDS011;14844;51.302;6.354;2023-11-22T03:24:21;66.60;;;35.75;;
27375;SDS011;14844;51.302;6.354;2023-11-22T03:26:47;57.70;;;34.50;;
27375;SDS011;14844;51.302;6.354;2023-11-22T03:29:14;57.88;;;35.22;;
27375;SDS011;14844;51.302;6.354;2023-11-22T03:31:41;58.97;;;35.28;;
27375;SDS011;14844;51.302;6.354;2023-11-22T03:34:07;62.10;;;35.95;;
27375;SDS011;14844;51.302;6.354;2023-11-22T03:36:33;60.15;;;36.03;;
27375;SDS011;14844;51.302;6.354;2023-11-22T03:38:58;60.13;;;35.40;;
27375;SDS011;14844;51.302;6.354;2023-11-22T03:41:24;64.82;;;36.53;;
27375;SDS011;14844;51.302;6.354;2023-11-22T03:43:49;64.70;;;36.70;;
27375;SDS011;14844;51.302;6.354;2023-11-22T03:46:15;68.20;;;37.03;;
27375;SDS011;14844;51.302;6.354;2023-11-22T03:48:40;73.18;;;39.63;;
27375;SDS011;14844;51.302;6.354;2023-11-22T03:51:06;68.35;;;39.10;;
27375;SDS011;14844;51.302;6.354;2023-11-22T03:53:31;71.43;;;37.35;;
27375;SDS011;14844;51.302;6.354;2023-11-22T03:55:57;72.57;;;40.00;;
27375;SDS011;14844;51.302;6.354;2023-11-22T03:58:23;68.82;;;38.28;;
27375;SDS011;14844;51.302;6.354;2023-11-22T04:00:49;74.15;;;40.65;;
27375;SDS011;14844;51.302;6.354;2023-11-22T04:03:16;71.28;;;38.38;;
27375;SDS011;14844;51.302;6.354;2023-11-22T04:05:43;75.80;;;39.22;;
27375;SDS011;14844;51.302;6.354;2023-11-22T04:08:09;71.97;;;36.78;;
27375;SDS011;14844;51.302;6.354;2023-11-22T04:10:34;65.30;;;37.58;;
27375;SDS011;14844;51.302;6.354;2023-11-22T04:13:00;65.07;;;37.38;;
27375;SDS011;14844;51.302;6.354;2023-11-22T04:15:26;68.28;;;38.00;;
27375;SDS011;14844;51.302;6.354;2023-11-22T04:17:51;71.50;;;38.30;;
27375;SDS011;14844;51.302;6.354;2023-11-22T04:20:19;75.25;;;39.00;;
27375;SDS011;14844;51.302;6.354;2023-11-22T04:22:45;65.03;;;37.05;;
27375;SDS011;14844;51.302;6.354;2023-11-22T04:25:11;65.47;;;37.42;;
27375;SDS011;14844;51.302;6.354;2023-11-22T04:27:40;67.25;;;37.58;;
27375;SDS011;14844;51.302;6.354;2023-11-22T04:30:06;67.82;;;36.67;;
27375;SDS011;14844;51.302;6.354;2023-11-22T04:32:42;61.17;;;35.85;;
27375;SDS011;14844;51.302;6.354;2023-11-22T04:35:09;56.55;;;35.35;;
27375;SDS011;14844;51.302;6.354;2023-11-22T04:37:35;63.75;;;34.30;;
27375;SDS011;14844;51.302;6.354;2023-11-22T04:40:01;60.92;;;35.40;;
27375;SDS011;14844;51.302;6.354;2023-11-22T04:42:28;56.33;;;35.42;;
27375;SDS011;14844;51.302;6.354;2023-11-22T04:44:54;63.95;;;35.08;;
27375;SDS011;14844;51.302;6.354;2023-11-22T04:47:20;62.92;;;36.00;;
27375;SDS011;14844;51.302;6.354;2023-11-22T04:49:47;60.95;;;35.33;;
27375;SDS011;14844;51.302;6.354;2023-11-22T04:52:13;61.17;;;34.72;;
27375;SDS011;14844;51.302;6.354;2023-11-22T04:54:39;60.50;;;35.65;;
27375;SDS011;14844;51.302;6.354;2023-11-22T04:57:04;64.55;;;35.47;;
27375;SDS011;14844;51.302;6.354;2023-11-22T04:59:30;63.10;;;36.50;;
27375;SDS011;14844;51.302;6.354;2023-11-22T05:01:56;69.30;;;37.08;;
27375;SDS011;14844;51.302;6.354;2023-11-22T05:04:22;67.50;;;35.55;;
27375;SDS011;14844;51.302;6.354;2023-11-22T05:06:53;65.57;;;36.13;;
27375;SDS011;14844;51.302;6.354;2023-11-22T05:09:19;74.07;;;37.60;;
27375;SDS011;14844;51.302;6.354;2023-11-22T05:11:45;66.57;;;36.20;;
27375;SDS011;14844;51.302;6.354;2023-11-22T05:14:10;66.97;;;36.53;;
27375;SDS011;14844;51.302;6.354;2023-11-22T05:16:36;66.07;;;36.13;;
27375;SDS011;14844;51.302;6.354;2023-11-22T05:19:02;72.40;;;37.97;;
27375;SDS011;14844;51.302;6.354;2023-11-22T05:21:27;81.07;;;37.60;;
27375;SDS011;14844;51.302;6.354;2023-11-22T05:23:53;80.90;;;38.67;;
27375;SDS011;14844;51.302;6.354;2023-11-22T05:26:19;69.88;;;36.20;;
27375;SDS011;14844;51.302;6.354;2023-11-22T05:28:46;82.80;;;43.28;;
27375;SDS011;14844;51.302;6.354;2023-11-22T05:31:13;69.13;;;38.38;;
27375;SDS011;14844;51.302;6.354;2023-11-22T05:33:39;77.60;;;37.72;;
27375;SDS011;14844;51.302;6.354;2023-11-22T05:36:05;83.07;;;44.95;;
27375;SDS011;14844;51.302;6.354;2023-11-22T05:38:31;73.22;;;42.95;;
27375;SDS011;14844;51.302;6.354;2023-11-22T05:41:00;66.88;;;35.72;;
27375;SDS011;14844;51.302;6.354;2023-11-22T05:43:26;63.55;;;35.80;;
27375;SDS011;14844;51.302;6.354;2023-11-22T05:45:55;62.22;;;34.75;;
27375;SDS011;14844;51.302;6.354;2023-11-22T05:48:21;62.55;;;35.85;;
27375;SDS011;14844;51.302;6.354;2023-11-22T05:50:46;73.53;;;37.22;;
27375;SDS011;14844;51.302;6.354;2023-11-22T05:53:13;68.28;;;35.80;;
27375;SDS011;14844;51.302;6.354;2023-11-22T05:55:44;77.65;;;36.90;;
27375;SDS011;14844;51.302;6.354;2023-11-22T05:58:11;73.28;;;47.70;;
27375;SDS011;14844;51.302;6.354;2023-11-22T06:00:37;66.43;;;35.17;;
27375;SDS011;14844;51.302;6.354;2023-11-22T06:03:03;73.10;;;38.10;;
27375;SDS011;14844;51.302;6.354;2023-11-22T06:05:29;70.82;;;38.70;;
27375;SDS011;14844;51.302;6.354;2023-11-22T06:07:55;61.42;;;34.25;;
27375;SDS011;14844;51.302;6.354;2023-11-22T06:10:21;62.97;;;34.42;;
27375;SDS011;14844;51.302;6.354;2023-11-22T06:12:47;80.30;;;37.63;;
27375;SDS011;14844;51.302;6.354;2023-11-22T06:15:13;88.35;;;38.50;;
27375;SDS011;14844;51.302;6.354;2023-11-22T06:17:39;141.43;;;39.42;;
27375;SDS011;14844;51.302;6.354;2023-11-22T06:20:04;90.00;;;38.28;;
27375;SDS011;14844;51.302;6.354;2023-11-22T06:22:31;73.70;;;38.38;;
27375;SDS011;14844;51.302;6.354;2023-11-22T06:24:57;159.02;;;39.30;;
27375;SDS011;14844;51.302;6.354;2023-11-22T06:27:22;158.32;;;40.00;;
27375;SDS011;14844;51.302;6.354;2023-11-22T06:29:48;260.50;;;40.88;;
27375;SDS011;14844;51.302;6.354;2023-11-22T06:32:14;381.02;;;44.53;;
27375;SDS011;14844;51.302;6.354;2023-11-22T06:34:39;137.57;;;37.60;;
27375;SDS011;14844;51.302;6.354;2023-11-22T06:37:05;198.45;;;37.55;;
27375;SDS011;14844;51.302;6.354;2023-11-22T06:39:33;389.27;;;44.30;;
27375;SDS011;14844;51.302;6.354;2023-11-22T06:42:00;210.75;;;36.38;;
27375;SDS011;14844;51.302;6.354;2023-11-22T06:44:25;363.25;;;42.45;;
27375;SDS011;14844;51.302;6.354;2023-11-22T06:46:51;314.80;;;41.45;;
27375;SDS011;14844;51.302;6.354;2023-11-22T06:49:18;232.00;;;36.03;;
27375;SDS011;14844;51.302;6.354;2023-11-22T06:51:44;212.10;;;34.53;;
27375;SDS011;14844;51.302;6.354;2023-11-22T06:54:28;58.90;;;30.40;;
27375;SDS011;14844;51.302;6.354;2023-11-22T06:57:45;355.73;;;37.50;;
27375;SDS011;14844;51.302;6.354;2023-11-22T07:01:12;235.80;;;35.33;;
27375;SDS011;14844;51.302;6.354;2023-11-22T07:03:37;339.17;;;38.03;;
27375;SDS011;14844;51.302;6.354;2023-11-22T07:06:03;242.07;;;33.90;;
27375;SDS011;14844;51.302;6.354;2023-11-22T07:08:29;293.08;;;35.22;;
27375;SDS011;14844;51.302;6.354;2023-11-22T07:10:55;338.90;;;37.28;;
27375;SDS011;14844;51.302;6.354;2023-11-22T07:13:21;356.13;;;41.22;;
27375;SDS011;14844;51.302;6.354;2023-11-22T07:15:47;213.43;;;33.40;;
27375;SDS011;14844;51.302;6.354;2023-11-22T07:18:13;273.95;;;34.78;;
27375;SDS011;14844;51.302;6.354;2023-11-22T07:20:39;324.33;;;37.75;;
27375;SDS011;14844;51.302;6.354;2023-11-22T07:23:05;253.23;;;35.38;;
27375;SDS011;14844;51.302;6.354;2023-11-22T07:25:30;301.20;;;38.20;;
27375;SDS011;14844;51.302;6.354;2023-11-22T07:27:56;214.88;;;37.55;;
27375;SDS011;14844;51.302;6.354;2023-11-22T07:30:22;274.00;;;40.13;;
27375;SDS011;14844;51.302;6.354;2023-11-22T07:32:49;422.73;;;45.55;;
27375;SDS011;14844;51.302;6.354;2023-11-22T07:35:16;233.32;;;38.95;;
27375;SDS011;14844;51.302;6.354;2023-11-22T07:37:44;225.55;;;36.50;;
27375;SDS011;14844;51.302;6.354;2023-11-22T07:40:11;129.73;;;35.75;;
27375;SDS011;14844;51.302;6.354;2023-11-22T07:42:38;127.90;;;36.00;;
27375;SDS011;14844;51.302;6.354;2023-11-22T07:45:04;68.45;;;35.65;;
27375;SDS011;14844;51.302;6.354;2023-11-22T07:47:31;129.27;;;35.17;;
27375;SDS011;14844;51.302;6.354;2023-11-22T07:49:56;60.72;;;32.03;;
27375;SDS011;14844;51.302;6.354;2023-11-22T07:52:23;75.60;;;31.63;;
27375;SDS011;14844;51.302;6.354;2023-11-22T07:54:55;101.45;;;32.80;;
27375;SDS011;14844;51.302;6.354;2023-11-22T07:57:21;86.30;;;29.65;;
27375;SDS011;14844;51.302;6.354;2023-11-22T07:59:48;108.97;;;30.73;;
27375;SDS011;14844;51.302;6.354;2023-11-22T08:02:14;74.13;;;28.60;;
27375;SDS011;14844;51.302;6.354;2023-11-22T08:04:43;80.55;;;30.50;;
27375;SDS011;14844;51.302;6.354;2023-11-22T08:07:10;64.40;;;30.30;;
27375;SDS011;14844;51.302;6.354;2023-11-22T08:09:38;82.75;;;30.60;;
27375;SDS011;14844;51.302;6.354;2023-11-22T08:12:04;62.42;;;28.60;;
27375;SDS011;14844;51.302;6.354;2023-11-22T08:14:29;49.13;;;27.55;;
27375;SDS011;14844;51.302;6.354;2023-11-22T08:16:55;86.07;;;26.95;;
27375;SDS011;14844;51.302;6.354;2023-11-22T08:19:21;111.30;;;26.73;;
27375;SDS011;14844;51.302;6.354;2023-11-22T08:21:48;68.45;;;26.88;;
27375;SDS011;14844;51.302;6.354;2023-11-22T08:24:14;54.50;;;26.80;;
27375;SDS011;14844;51.302;6.354;2023-11-22T08:26:40;111.10;;;26.17;;
27375;SDS011;14844;51.302;6.354;2023-11-22T08:29:06;66.97;;;26.30;;
27375;SDS011;14844;51.302;6.354;2023-11-22T08:31:34;47.10;;;27.58;;
27375;SDS011;14844;51.302;6.354;2023-11-22T08:34:01;42.92;;;26.13;;
27375;SDS011;14844;51.302;6.354;2023-11-22T08:36:26;50.80;;;27.60;;
27375;SDS011;14844;51.302;6.354;2023-11-22T08:38:53;52.60;;;27.60;;
27375;SDS011;14844;51.302;6.354;2023-11-22T08:41:20;141.73;;;29.70;;
27375;SDS011;14844;51.302;6.354;2023-11-22T08:43:46;94.30;;;27.40;;
27375;SDS011;14844;51.302;6.354;2023-11-22T08:46:13;54.35;;;26.27;;
27375;SDS011;14844;51.302;6.354;2023-11-22T08:48:39;46.95;;;25.88;;
27375;SDS011;14844;51.302;6.354;2023-11-22T08:51:06;71.00;;;27.77;;
27375;SDS011;14844;51.302;6.354;2023-11-22T08:53:32;88.03;;;26.30;;
27375;SDS011;14844;51.302;6.354;2023-11-22T08:55:58;60.60;;;25.35;;
27375;SDS011;14844;51.302;6.354;2023-11-22T08:58:24;46.85;;;25.08;;
27375;SDS011;14844;51.302;6.354;2023-11-22T09:00:50;51.30;;;26.42;;
27375;SDS011;14844;51.302;6.354;2023-11-22T09:03:16;44.08;;;27.05;;
27375;SDS011;14844;51.302;6.354;2023-11-22T09:05:42;50.40;;;26.90;;
27375;SDS011;14844;51.302;6.354;2023-11-22T09:08:09;51.83;;;28.27;;
27375;SDS011;14844;51.302;6.354;2023-11-22T09:10:41;44.80;;;26.10;;
27375;SDS011;14844;51.302;6.354;2023-11-22T09:13:10;43.88;;;27.40;;
27375;SDS011;14844;51.302;6.354;2023-11-22T09:15:36;47.72;;;27.77;;
27375;SDS011;14844;51.302;6.354;2023-11-22T09:18:03;38.10;;;24.50;;
27375;SDS011;14844;51.302;6.354;2023-11-22T09:20:29;43.03;;;26.55;;
27375;SDS011;14844;51.302;6.354;2023-11-22T09:22:55;42.15;;;26.42;;
27375;SDS011;14844;51.302;6.354;2023-11-22T09:25:22;45.95;;;25.77;;
27375;SDS011;14844;51.302;6.354;2023-11-22T09:27:53;40.28;;;25.67;;
27375;SDS011;14844;51.302;6.354;2023-11-22T09:33:12;46.38;;;24.67;;
27375;SDS011;14844;51.302;6.354;2023-11-22T09:35:43;33.03;;;22.67;;
27375;SDS011;14844;51.302;6.354;2023-11-22T09:38:11;38.85;;;24.42;;
27375;SDS011;14844;51.302;6.354;2023-11-22T09:40:47;36.78;;;23.67;;
27375;SDS011;14844;51.302;6.354;2023-11-22T09:43:14;38.38;;;24.30;;
27375;SDS011;14844;51.302;6.354;2023-11-22T09:45:45;32.65;;;22.23;;
27375;SDS011;14844;51.302;6.354;2023-11-22T09:48:14;38.75;;;23.77;;
27375;SDS011;14844;51.302;6.354;2023-11-22T09:53:33;30.80;;;21.17;;
27375;SDS011;14844;51.302;6.354;2023-11-22T09:56:03;33.83;;;21.65;;
27375;SDS011;14844;51.302;6.354;2023-11-22T09:58:31;39.67;;;20.30;;
27375;SDS011;14844;51.302;6.354;2023-11-22T10:00:59;27.02;;;19.38;;
27375;SDS011;14844;51.302;6.354;2023-11-22T10:03:25;32.38;;;20.60;;
27375;SDS011;14844;51.302;6.354;2023-11-22T10:05:51;27.88;;;18.63;;
27375;SDS011;14844;51.302;6.354;2023-11-22T10:08:18;27.77;;;17.75;;
27375;SDS011;14844;51.302;6.354;2023-11-22T10:10:46;26.08;;;17.30;;
27375;SDS011;14844;51.302;6.354;2023-11-22T10:13:16;26.10;;;17.23;;
27375;SDS011;14844;51.302;6.354;2023-11-22T10:15:45;27.48;;;18.58;;
27375;SDS011;14844;51.302;6.354;2023-11-22T10:18:14;30.88;;;18.90;;
27375;SDS011;14844;51.302;6.354;2023-11-22T10:20:40;28.88;;;18.75;;
27375;SDS011;14844;51.302;6.354;2023-11-22T10:23:10;23.85;;;17.23;;
27375;SDS011;14844;51.302;6.354;2023-11-22T10:25:52;25.75;;;16.40;;
27375;SDS011;14844;51.302;6.354;2023-11-22T10:28:25;24.38;;;16.15;;
27375;SDS011;14844;51.302;6.354;2023-11-22T10:30:52;22.52;;;15.68;;
27375;SDS011;14844;51.302;6.354;2023-11-22T10:33:18;25.17;;;16.25;;
27375;SDS011;14844;51.302;6.354;2023-11-22T10:35:49;20.85;;;15.77;;
27375;SDS011;14844;51.302;6.354;2023-11-22T10:38:19;19.70;;;14.80;;
27375;SDS011;14844;51.302;6.354;2023-11-22T10:40:45;19.75;;;14.65;;
27375;SDS011;14844;51.302;6.354;2023-11-22T10:43:13;20.48;;;14.10;;
27375;SDS011;14844;51.302;6.354;2023-11-22T10:45:40;21.52;;;14.15;;
27375;SDS011;14844;51.302;6.354;2023-11-22T10:48:09;22.58;;;14.68;;
27375;SDS011;14844;51.302;6.354;2023-11-22T10:50:39;20.50;;;13.95;;
27375;SDS011;14844;51.302;6.354;2023-11-22T10:53:06;20.27;;;14.20;;
27375;SDS011;14844;51.302;6.354;2023-11-22T10:55:32;21.42;;;13.25;;
27375;SDS011;14844;51.302;6.354;2023-11-22T10:58:01;19.83;;;12.95;;
27375;SDS011;14844;51.302;6.354;2023-11-22T11:00:28;20.45;;;14.18;;
27375;SDS011;14844;51.302;6.354;2023-11-22T11:05:29;21.95;;;13.98;;
27375;SDS011;14844;51.302;6.354;2023-11-22T11:08:09;18.55;;;12.38;;
27375;SDS011;14844;51.302;6.354;2023-11-22T11:10:38;18.15;;;12.60;;
27375;SDS011;14844;51.302;6.354;2023-11-22T11:13:05;20.15;;;12.88;;
27375;SDS011;14844;51.302;6.354;2023-11-22T11:15:31;18.25;;;12.10;;
27375;SDS011;14844;51.302;6.354;2023-11-22T11:17:57;18.77;;;11.88;;
27375;SDS011;14844;51.302;6.354;2023-11-22T11:20:24;16.10;;;11.23;;
27375;SDS011;14844;51.302;6.354;2023-11-22T11:22:49;19.33;;;10.98;;
27375;SDS011;14844;51.302;6.354;2023-11-22T11:25:17;18.23;;;10.43;;
27375;SDS011;14844;51.302;6.354;2023-11-22T11:27:43;14.13;;;9.32;;
27375;SDS011;14844;51.302;6.354;2023-11-22T11:32:57;16.30;;;10.15;;
27375;SDS011;14844;51.302;6.354;2023-11-22T11:35:44;16.92;;;10.82;;
27375;SDS011;14844;51.302;6.354;2023-11-22T11:38:12;15.38;;;10.13;;
27375;SDS011;14844;51.302;6.354;2023-11-22T11:40:39;16.27;;;9.75;;
27375;SDS011;14844;51.302;6.354;2023-11-22T11:43:10;12.52;;;8.38;;
27375;SDS011;14844;51.302;6.354;2023-11-22T11:45:40;13.25;;;8.20;;
27375;SDS011;14844;51.302;6.354;2023-11-22T11:48:14;11.65;;;7.25;;
27375;SDS011;14844;51.302;6.354;2023-11-22T11:50:41;12.57;;;7.47;;
27375;SDS011;14844;51.302;6.354;2023-11-22T11:53:10;13.65;;;7.93;;
27375;SDS011;14844;51.302;6.354;2023-11-22T11:55:36;14.00;;;7.40;;
27375;SDS011;14844;51.302;6.354;2023-11-22T11:58:06;12.60;;;7.53;;
27375;SDS011;14844;51.302;6.354;2023-11-22T12:00:38;11.43;;;7.70;;
27375;SDS011;14844;51.302;6.354;2023-11-22T12:03:09;13.05;;;8.68;;
27375;SDS011;14844;51.302;6.354;2023-11-22T12:05:36;11.85;;;8.10;;
27375;SDS011;14844;51.302;6.354;2023-11-22T12:08:02;11.30;;;8.02;;
27375;SDS011;14844;51.302;6.354;2023-11-22T12:10:27;12.10;;;8.57;;
27375;SDS011;14844;51.302;6.354;2023-11-22T12:12:54;11.68;;;8.02;;
27375;SDS011;14844;51.302;6.354;2023-11-22T12:15:19;12.95;;;8.30;;
27375;SDS011;14844;51.302;6.354;2023-11-22T12:17:47;13.55;;;8.18;;
27375;SDS011;14844;51.302;6.354;2023-11-22T12:20:16;10.02;;;7.15;;
27375;SDS011;14844;51.302;6.354;2023-11-22T12:22:46;12.18;;;7.95;;
27375;SDS011;14844;51.302;6.354;2023-11-22T12:25:13;12.15;;;8.13;;
27375;SDS011;14844;51.302;6.354;2023-11-22T12:27:43;17.27;;;9.98;;
27375;SDS011;14844;51.302;6.354;2023-11-22T12:33:00;17.42;;;10.35;;
27375;SDS011;14844;51.302;6.354;2023-11-22T12:35:32;16.35;;;10.77;;
27375;SDS011;14844;51.302;6.354;2023-11-22T12:38:04;17.38;;;11.13;;
27375;SDS011;14844;51.302;6.354;2023-11-22T12:40:33;20.45;;;12.25;;
27375;SDS011;14844;51.302;6.354;2023-11-22T12:42:59;20.35;;;13.10;;
27375;SDS011;14844;51.302;6.354;2023-11-22T12:45:26;23.98;;;13.57;;
27375;SDS011;14844;51.302;6.354;2023-11-22T12:47:54;25.00;;;13.30;;
27375;SDS011;14844;51.302;6.354;2023-11-22T12:50:34;22.85;;;13.25;;
27375;SDS011;14844;51.302;6.354;2023-11-22T12:53:12;19.20;;;12.38;;
27375;SDS011;14844;51.302;6.354;2023-11-22T12:55:42;18.90;;;12.05;;
27375;SDS011;14844;51.302;6.354;2023-11-22T12:58:09;18.30;;;10.73;;
27375;SDS011;14844;51.302;6.354;2023-11-22T13:00:35;15.98;;;9.50;;
27375;SDS011;14844;51.302;6.354;2023-11-22T13:03:01;17.40;;;11.05;;
27375;SDS011;14844;51.302;6.354;2023-11-22T13:05:27;18.33;;;9.60;;
27375;SDS011;14844;51.302;6.354;2023-11-22T13:07:53;16.40;;;9.63;;
27375;SDS011;14844;51.302;6.354;2023-11-22T13:10:18;15.90;;;9.60;;
27375;SDS011;14844;51.302;6.354;2023-11-22T13:12:49;15.43;;;9.25;;
27375;SDS011;14844;51.302;6.354;2023-11-22T13:15:15;18.55;;;10.50;;
27375;SDS011;14844;51.302;6.354;2023-11-22T13:17:41;19.85;;;10.68;;
27375;SDS011;14844;51.302;6.354;2023-11-22T13:20:07;18.33;;;9.93;;
27375;SDS011;14844;51.302;6.354;2023-11-22T13:22:40;19.23;;;10.35;;
27375;SDS011;14844;51.302;6.354;2023-11-22T13:25:09;17.23;;;10.80;;
27375;SDS011;14844;51.302;6.354;2023-11-22T13:27:44;19.90;;;11.07;;
27375;SDS011;14844;51.302;6.354;2023-11-22T13:30:14;16.48;;;10.07;;
27375;SDS011;14844;51.302;6.354;2023-11-22T13:32:45;15.52;;;8.80;;
27375;SDS011;14844;51.302;6.354;2023-11-22T13:35:12;14.23;;;8.40;;
27375;SDS011;14844;51.302;6.354;2023-11-22T13:37:42;12.80;;;7.93;;
27375;SDS011;14844;51.302;6.354;2023-11-22T13:40:13;12.80;;;7.75;;
27375;SDS011;14844;51.302;6.354;2023-11-22T13:42:40;16.67;;;8.52;;
27375;SDS011;14844;51.302;6.354;2023-11-22T13:45:07;13.38;;;8.00;;
27375;SDS011;14844;51.302;6.354;2023-11-22T13:47:33;13.45;;;8.20;;
27375;SDS011;14844;51.302;6.354;2023-11-22T13:49:58;12.73;;;8.05;;
27375;SDS011;14844;51.302;6.354;2023-11-22T13:52:24;15.40;;;9.32;;
27375;SDS011;14844;51.302;6.354;2023-11-22T13:54:50;16.48;;;9.80;;
27375;SDS011;14844;51.302;6.354;2023-11-22T13:57:20;14.40;;;9.63;;
27375;SDS011;14844;51.302;6.354;2023-11-22T13:59:45;17.25;;;10.35;;
27375;SDS011;14844;51.302;6.354;2023-11-22T14:02:11;20.45;;;10.85;;
27375;SDS011;14844;51.302;6.354;2023-11-22T14:04:37;16.40;;;10.88;;
27375;SDS011;14844;51.302;6.354;2023-11-22T14:07:03;17.27;;;11.45;;
27375;SDS011;14844;51.302;6.354;2023-11-22T14:09:29;16.20;;;11.23;;
27375;SDS011;14844;51.302;6.354;2023-11-22T14:11:54;19.88;;;11.57;;
27375;SDS011;14844;51.302;6.354;2023-11-22T14:14:20;20.15;;;12.18;;
27375;SDS011;14844;51.302;6.354;2023-11-22T14:16:48;17.83;;;12.55;;
27375;SDS011;14844;51.302;6.354;2023-11-22T14:19:14;19.52;;;12.63;;
27375;SDS011;14844;51.302;6.354;2023-11-22T14:21:39;22.08;;;13.05;;
27375;SDS011;14844;51.302;6.354;2023-11-22T14:24:05;20.00;;;13.07;;
27375;SDS011;14844;51.302;6.354;2023-11-22T14:26:31;23.08;;;13.90;;
27375;SDS011;14844;51.302;6.354;2023-11-22T14:28:56;18.90;;;13.13;;
27375;SDS011;14844;51.302;6.354;2023-11-22T14:31:22;19.52;;;13.52;;
27375;SDS011;14844;51.302;6.354;2023-11-22T14:33:47;19.35;;;13.93;;
27375;SDS011;14844;51.302;6.354;2023-11-22T14:36:13;24.65;;;14.30;;